createdAt,value
2023-05-09T00:04:30.433Z,9.45
2023-05-09T00:09:32.578Z,6.88
2023-05-09T00:14:34.706Z,5.47
2023-05-09T00:19:36.746Z,8.13
2023-05-09T00:24:39.313Z,6.68
2023-05-09T00:29:41.390Z,5.72
2023-05-09T00:34:43.536Z,5.03
2023-05-09T00:39:46.431Z,6.90
2023-05-09T00:44:48.553Z,6.00
2023-05-09T00:49:50.787Z,5.38
2023-05-09T00:54:54.683Z,5.88
2023-05-09T00:59:57.537Z,7.03
2023-05-09T01:04:59.691Z,5.95
2023-05-09T01:10:23.555Z,5.10
2023-05-09T01:15:37.475Z,5.95
2023-05-09T01:20:47.659Z,10.43
2023-05-09T01:26:05.850Z,5.50
2023-05-09T01:31:09.253Z,7.13
2023-05-09T01:36:15.321Z,6.63
2023-05-09T01:41:18.934Z,6.32
2023-05-09T01:51:26.637Z,3.58
2023-05-09T01:56:29.732Z,5.40
2023-05-09T02:01:32.458Z,5.10
2023-05-09T02:06:35.626Z,3.65
2023-05-09T02:11:37.682Z,5.55
2023-05-09T02:16:40.813Z,3.65
2023-05-09T02:21:43.216Z,7.95
2023-05-09T02:26:46.036Z,4.15
2023-05-09T02:31:50.756Z,4.68
2023-05-09T02:36:52.992Z,3.80
2023-05-09T02:41:55.164Z,3.72
2023-05-09T02:46:57.256Z,5.10
2023-05-09T02:51:59.628Z,3.22
2023-05-09T02:57:01.846Z,4.47
2023-05-09T03:02:04.021Z,3.45
2023-05-09T03:07:06.702Z,6.53
2023-05-09T03:12:08.960Z,8.07
2023-05-09T03:17:11.654Z,5.00
2023-05-09T03:22:14.896Z,5.07
2023-05-09T03:27:26.466Z,3.00
2023-05-09T03:32:29.501Z,5.63
2023-05-09T03:37:31.629Z,4.65
2023-05-09T03:42:33.848Z,4.38
2023-05-09T03:47:37.844Z,5.85
2023-05-09T03:52:40.996Z,4.25
2023-05-09T03:57:43.728Z,4.05
2023-05-09T04:02:46.404Z,4.10
2023-05-09T04:07:57.648Z,4.25
2023-05-09T04:12:59.946Z,3.17
2023-05-09T04:18:02.316Z,7.40
2023-05-09T04:23:04.458Z,4.10
2023-05-09T04:28:06.884Z,5.97
2023-05-09T04:33:09.752Z,3.42
2023-05-09T04:38:12.752Z,3.72
2023-05-09T04:43:14.900Z,6.22
2023-05-09T04:48:17.059Z,3.60
2023-05-09T04:53:19.168Z,1.70
2023-05-09T04:58:23.300Z,4.10
2023-05-09T05:03:25.723Z,2.63
2023-05-09T05:08:28.070Z,5.57
2023-05-09T05:13:30.292Z,3.40
2023-05-09T05:18:35.811Z,2.55
2023-05-09T05:23:38.268Z,2.50
2023-05-09T05:28:40.706Z,2.83
2023-05-09T05:33:43.064Z,4.00
2023-05-09T05:38:45.403Z,5.35
2023-05-09T05:43:47.577Z,3.80
2023-05-09T05:48:50.758Z,2.38
2023-05-09T05:53:52.935Z,3.22
2023-05-09T05:58:55.548Z,2.75
2023-05-09T06:03:58.468Z,2.92
2023-05-09T06:09:03.578Z,2.50
2023-05-09T06:14:05.820Z,5.03
2023-05-09T06:19:08.342Z,2.30
2023-05-09T06:24:19.769Z,4.43
2023-05-09T06:29:29.986Z,4.75
2023-05-09T06:34:32.020Z,5.18
2023-05-09T06:39:34.261Z,5.35
2023-05-09T06:44:36.390Z,2.53
2023-05-09T06:49:38.558Z,3.53
2023-05-09T06:54:40.612Z,2.50
2023-05-09T06:59:42.705Z,1.90
2023-05-09T07:04:45.048Z,2.78
2023-05-09T07:09:49.171Z,5.43
2023-05-09T07:14:52.816Z,2.78
2023-05-09T07:19:55.005Z,2.67
2023-05-09T07:24:57.264Z,2.83
2023-05-09T07:29:59.660Z,3.08
2023-05-09T07:35:02.534Z,7.47
2023-05-09T07:40:06.357Z,3.50
2023-05-09T07:45:09.036Z,4.43
2023-05-09T07:50:11.519Z,3.40
2023-05-09T07:55:13.977Z,2.53
2023-05-09T08:00:16.736Z,3.50
2023-05-09T08:05:19.352Z,3.75
2023-05-09T08:10:23.176Z,4.07
2023-05-09T08:15:25.466Z,3.65
2023-05-09T08:20:27.573Z,2.42
2023-05-09T08:25:29.848Z,2.97
2023-05-09T08:30:32.022Z,2.80
2023-05-09T08:35:33.953Z,3.00
2023-05-09T08:40:37.973Z,2.40
2023-05-09T08:45:47.607Z,4.07
2023-05-09T08:55:52.298Z,1.83
2023-05-09T09:00:55.955Z,4.63
2023-05-09T09:11:00.742Z,1.95
2023-05-09T09:16:02.998Z,3.35
2023-05-09T09:21:09.932Z,2.40
2023-05-09T09:26:12.111Z,3.92
2023-05-09T09:31:28.612Z,1.95
2023-05-09T09:36:32.769Z,2.50
2023-05-09T09:41:38.977Z,3.40
2023-05-09T09:46:49.005Z,2.95
2023-05-09T09:51:52.477Z,2.60
2023-05-09T09:56:55.299Z,2.13
2023-05-09T10:02:05.907Z,3.28
2023-05-09T10:07:14.370Z,2.45
2023-05-09T10:12:20.182Z,3.92
2023-05-09T10:17:23.303Z,2.15
2023-05-09T10:22:27.739Z,2.33
2023-05-09T10:27:35.128Z,1.90
2023-05-09T10:33:13.104Z,1.77
2023-05-09T10:38:16.498Z,3.17
2023-05-09T10:43:18.592Z,2.20
2023-05-09T10:48:21.147Z,1.95
2023-05-09T10:53:24.568Z,1.83
2023-05-09T10:58:30.598Z,2.15
2023-05-09T11:03:58.264Z,2.30
2023-05-09T11:09:35.685Z,1.85
2023-05-09T11:14:38.219Z,1.95
2023-05-09T11:19:46.147Z,2.25
2023-05-09T11:24:51.914Z,1.23
2023-05-09T11:29:59.135Z,1.80
2023-05-09T11:35:21.110Z,1.98
2023-05-09T11:40:23.334Z,1.27
2023-05-09T11:45:28.450Z,1.05
2023-05-09T11:50:30.616Z,2.78
2023-05-09T11:55:32.995Z,1.33
2023-05-09T12:00:37.427Z,1.23
2023-05-09T12:05:39.864Z,1.52
2023-05-09T12:10:41.893Z,2.80
2023-05-09T12:15:44.120Z,1.42
2023-05-09T12:20:48.461Z,1.98
2023-05-09T12:25:54.016Z,1.45
2023-05-09T12:30:56.846Z,2.03
2023-05-09T12:36:08.831Z,1.67
2023-05-09T12:41:33.382Z,2.80
2023-05-09T12:46:35.757Z,1.95
2023-05-09T12:51:49.189Z,1.45
2023-05-09T12:56:57.047Z,2.83
2023-05-09T13:02:00.902Z,1.20
2023-05-09T13:07:10.402Z,1.85
2023-05-09T13:12:12.481Z,1.98
2023-05-09T13:17:14.618Z,1.10
2023-05-09T13:22:17.707Z,1.58
2023-05-09T13:27:20.538Z,1.20
2023-05-09T13:32:22.608Z,1.88
2023-05-09T13:37:24.827Z,1.77
2023-05-09T13:42:27.782Z,1.70
2023-05-09T13:47:29.901Z,1.67
2023-05-09T13:52:32.040Z,2.05
2023-05-09T13:57:34.133Z,2.20
2023-05-09T14:02:36.144Z,2.00
2023-05-09T14:07:38.350Z,1.52
2023-05-09T14:12:40.749Z,1.73
2023-05-09T14:17:43.723Z,1.42
2023-05-09T14:22:46.633Z,1.40
2023-05-09T14:27:48.687Z,1.20
2023-05-09T14:32:51.176Z,1.30
2023-05-09T14:37:53.525Z,1.75
2023-05-09T14:42:55.687Z,1.23
2023-05-09T14:47:58.089Z,2.38
2023-05-09T14:53:01.174Z,1.48
2023-05-09T14:58:03.896Z,1.42
2023-05-09T15:03:06.197Z,1.73
2023-05-09T15:08:08.863Z,1.20
2023-05-09T15:13:11.605Z,1.90
2023-05-09T15:18:16.076Z,0.90
2023-05-09T15:23:18.447Z,1.42
2023-05-09T15:28:20.585Z,1.45
2023-05-09T15:33:22.677Z,1.15
2023-05-09T15:38:24.938Z,1.38
2023-05-09T15:43:27.035Z,1.48
2023-05-09T15:48:29.070Z,1.05
2023-05-09T15:53:31.353Z,1.58
2023-05-09T15:58:34.304Z,1.27
2023-05-09T16:03:36.488Z,1.20
2023-05-09T16:08:38.805Z,1.00
2023-05-09T16:13:40.975Z,1.52
2023-05-09T16:18:43.049Z,1.15
2023-05-09T16:23:45.788Z,2.53
2023-05-09T16:28:48.126Z,1.58
2023-05-09T16:33:50.208Z,0.88
2023-05-09T16:38:52.219Z,1.67
2023-05-09T16:43:54.372Z,0.85
2023-05-09T16:48:56.509Z,3.05
2023-05-09T16:53:58.763Z,1.23
2023-05-09T16:59:01.393Z,1.05
2023-05-09T17:04:06.877Z,1.15
2023-05-09T17:09:09.239Z,0.93
2023-05-09T17:14:11.280Z,1.55
2023-05-09T17:19:13.293Z,0.82
2023-05-09T17:24:16.225Z,0.73
2023-05-09T17:29:18.450Z,1.83
2023-05-09T17:34:20.624Z,1.83
2023-05-09T17:39:23.219Z,1.88
2023-05-09T17:44:25.342Z,0.80
2023-05-09T17:49:28.843Z,1.05
2023-05-09T17:54:30.933Z,1.95
2023-05-09T17:59:33.277Z,1.08
2023-05-09T18:04:35.520Z,2.22
2023-05-09T18:09:37.685Z,1.30
2023-05-09T18:14:39.883Z,1.13
2023-05-09T18:19:42.444Z,1.48
2023-05-09T18:24:45.034Z,1.65
2023-05-09T18:29:47.611Z,0.93
2023-05-09T18:34:49.707Z,0.73
2023-05-09T18:39:51.999Z,1.30
2023-05-09T18:44:54.307Z,1.40
2023-05-09T18:49:56.353Z,1.83
2023-05-09T18:54:58.953Z,1.40
2023-05-09T19:00:01.785Z,1.80
2023-05-09T19:05:08.073Z,0.93
2023-05-09T19:10:10.811Z,1.50
2023-05-09T19:15:12.821Z,1.35
2023-05-09T19:20:15.181Z,1.23
2023-05-09T19:25:19.058Z,1.00
2023-05-09T19:30:21.364Z,0.90
2023-05-09T19:35:23.622Z,1.38
2023-05-09T19:40:25.746Z,1.75
2023-05-09T19:45:27.838Z,1.20
2023-05-09T19:50:31.166Z,1.20
2023-05-09T19:55:33.272Z,0.95
2023-05-09T20:00:36.284Z,0.80
2023-05-09T20:05:44.594Z,1.52
2023-05-09T20:10:47.084Z,2.10
2023-05-09T20:15:50.429Z,2.17
2023-05-09T20:20:54.169Z,0.88
2023-05-09T20:25:56.453Z,1.25
2023-05-09T20:30:58.705Z,0.80
2023-05-09T20:36:01.010Z,2.28
2023-05-09T20:41:04.174Z,1.85
2023-05-09T20:46:06.770Z,1.50
2023-05-09T20:51:08.787Z,1.83
2023-05-09T20:56:10.943Z,1.75
2023-05-09T21:01:13.148Z,1.25
2023-05-09T21:06:15.297Z,1.90
2023-05-09T21:11:18.341Z,1.67
2023-05-09T21:16:20.502Z,2.17
2023-05-09T21:21:22.672Z,1.88
2023-05-09T21:26:24.722Z,3.17
2023-05-09T21:31:27.132Z,2.30
2023-05-09T21:36:29.138Z,2.05
2023-05-09T21:41:31.182Z,2.38
2023-05-09T21:46:34.176Z,1.27
2023-05-09T21:51:36.383Z,2.00
2023-05-09T21:56:38.476Z,1.88
2023-05-09T22:01:40.634Z,2.22
2023-05-09T22:06:42.985Z,1.55
2023-05-09T22:11:45.094Z,1.58
2023-05-09T22:16:47.340Z,1.60
2023-05-09T22:21:49.621Z,4.53
2023-05-09T22:26:51.719Z,2.60
2023-05-09T22:31:54.921Z,3.03
2023-05-09T22:36:57.188Z,1.30
2023-05-09T22:41:59.256Z,1.65
2023-05-09T22:47:01.362Z,2.40
2023-05-09T22:52:03.695Z,1.33
2023-05-09T22:57:05.845Z,2.15
2023-05-09T23:02:08.038Z,1.02
2023-05-09T23:07:10.336Z,1.20
2023-05-09T23:12:12.510Z,2.72
2023-05-09T23:17:14.757Z,2.30
2023-05-09T23:22:16.945Z,1.45
2023-05-09T23:27:19.047Z,2.85
2023-05-09T23:32:21.314Z,2.70
2023-05-09T23:37:23.436Z,1.85
2023-05-09T23:42:25.540Z,2.22
2023-05-09T23:47:27.647Z,2.25
2023-05-09T23:52:29.685Z,1.35
2023-05-09T23:57:32.048Z,2.03
